createdAt,value
2018-11-12T00:02:00.820Z,62.07
2018-11-12T00:04:31.704Z,66.20
2018-11-12T00:07:02.596Z,63.87
2018-11-12T00:09:33.511Z,60.10
2018-11-12T00:12:04.441Z,72.17
2018-11-12T00:14:35.293Z,86.97
2018-11-12T00:17:06.647Z,79.63
2018-11-12T00:19:37.868Z,89.87
2018-11-12T00:22:08.796Z,92.80
2018-11-12T00:24:39.794Z,77.47
2018-11-12T00:27:10.707Z,87.97
2018-11-12T00:29:41.751Z,90.73
2018-11-12T00:32:13.117Z,87.63
2018-11-12T00:34:44.034Z,92.23
2018-11-12T00:37:15.453Z,92.40
2018-11-12T00:39:47.003Z,86.60
2018-11-12T00:42:17.944Z,67.63
2018-11-12T00:44:49.199Z,65.97
2018-11-12T00:47:20.176Z,62.20
2018-11-12T00:49:51.221Z,53.37
2018-11-12T00:52:22.189Z,55.20
2018-11-12T00:54:53.205Z,60.60
2018-11-12T00:57:24.217Z,51.93
2018-11-12T00:59:55.096Z,58.73
2018-11-12T01:02:26.099Z,64.50
2018-11-12T01:04:57.082Z,74.67
2018-11-12T01:07:28.012Z,72.83
2018-11-12T01:09:58.959Z,61.03
2018-11-12T01:12:30.020Z,55.93
2018-11-12T01:15:01.222Z,64.73
2018-11-12T01:17:32.141Z,56.60
2018-11-12T01:20:03.124Z,54.33
2018-11-12T01:22:34.841Z,51.13
2018-11-12T01:25:05.932Z,55.00
2018-11-12T01:27:36.986Z,55.77
2018-11-12T01:30:14.173Z,54.07
2018-11-12T01:32:45.352Z,50.60
2018-11-12T01:35:17.177Z,57.63
2018-11-12T01:37:48.248Z,59.03
2018-11-12T01:40:19.235Z,67.50
2018-11-12T01:42:50.487Z,68.33
2018-11-12T01:45:21.738Z,64.73
2018-11-12T01:47:52.939Z,54.60
2018-11-12T01:50:23.932Z,51.07
2018-11-12T01:52:54.953Z,54.13
2018-11-12T01:55:25.951Z,63.97
2018-11-12T01:57:56.901Z,68.43
2018-11-12T02:00:27.886Z,56.53
2018-11-12T02:02:58.896Z,71.60
2018-11-12T02:05:30.007Z,53.77
2018-11-12T02:08:01.142Z,48.53
2018-11-12T02:10:32.172Z,48.30
2018-11-12T02:13:03.756Z,43.33
2018-11-12T02:15:35.093Z,61.43
2018-11-12T02:18:06.331Z,65.97
2018-11-12T02:20:37.538Z,57.87
2018-11-12T02:23:09.361Z,51.00
2018-11-12T02:25:40.672Z,58.63
2018-11-12T02:28:11.598Z,46.63
2018-11-12T02:30:49.356Z,56.90
2018-11-12T02:33:20.518Z,50.00
2018-11-12T02:35:51.320Z,46.30
2018-11-12T02:38:22.205Z,52.93
2018-11-12T02:40:53.190Z,60.57
2018-11-12T02:43:24.301Z,49.10
2018-11-12T02:45:55.546Z,48.87
2018-11-12T02:48:26.535Z,41.37
2018-11-12T02:50:57.871Z,52.00
2018-11-12T02:53:28.798Z,63.67
2018-11-12T02:55:59.979Z,69.13
2018-11-12T02:58:31.223Z,79.10
2018-11-12T03:01:02.537Z,58.53
2018-11-12T03:03:33.807Z,66.43
2018-11-12T03:06:06.039Z,64.47
2018-11-12T03:08:37.067Z,64.53
2018-11-12T03:11:08.132Z,72.97
2018-11-12T03:13:39.040Z,69.47
2018-11-12T03:16:10.017Z,104.77
2018-11-12T03:18:48.873Z,98.17
2018-11-12T03:21:20.204Z,103.53
2018-11-12T03:23:51.112Z,100.70
2018-11-12T03:26:22.135Z,116.53
2018-11-12T03:28:53.363Z,102.07
2018-11-12T03:31:24.652Z,105.27
2018-11-12T03:33:55.667Z,101.47
2018-11-12T03:36:26.784Z,77.67
2018-11-12T03:38:57.850Z,66.83
2018-11-12T03:41:29.092Z,66.37
2018-11-12T03:44:00.327Z,51.27
2018-11-12T03:46:31.268Z,57.77
2018-11-12T03:49:02.288Z,57.40
2018-11-12T03:51:33.260Z,61.17
2018-11-12T03:54:04.193Z,55.90
2018-11-12T03:56:35.189Z,60.90
2018-11-12T03:59:06.542Z,58.57
2018-11-12T04:01:47.203Z,62.03
2018-11-12T04:04:18.487Z,56.37
2018-11-12T04:06:49.469Z,61.73
2018-11-12T04:09:20.664Z,57.27
2018-11-12T04:11:52.018Z,62.20
2018-11-12T04:14:23.098Z,194.83
2018-11-12T04:16:54.157Z,135.33
2018-11-12T04:19:25.253Z,79.87
2018-11-12T04:21:56.233Z,354.53
2018-11-12T04:24:27.265Z,340.10
2018-11-12T04:26:58.564Z,80.80
2018-11-12T04:29:29.519Z,160.23
2018-11-12T04:32:00.722Z,143.57
2018-11-12T04:34:31.624Z,59.70
2018-11-12T04:37:03.113Z,62.90
2018-11-12T04:39:34.852Z,37.90
2018-11-12T04:42:06.363Z,66.77
2018-11-12T04:44:37.861Z,32.60
2018-11-12T04:47:08.929Z,80.37
2018-11-12T04:49:40.292Z,99.53
2018-11-12T04:52:11.488Z,46.87
2018-11-12T04:54:42.464Z,55.30
2018-11-12T04:57:13.772Z,70.73
2018-11-12T04:59:44.660Z,71.23
2018-11-12T05:02:16.794Z,71.60
2018-11-12T05:04:48.608Z,72.37
2018-11-12T05:07:19.892Z,62.70
2018-11-12T05:09:51.105Z,59.10
2018-11-12T05:12:21.931Z,78.63
2018-11-12T05:14:52.998Z,76.37
2018-11-12T05:17:24.218Z,87.83
2018-11-12T05:19:55.523Z,90.27
2018-11-12T05:22:26.710Z,296.77
2018-11-12T05:24:58.156Z,280.87
2018-11-12T05:27:29.459Z,162.57
2018-11-12T05:30:01.063Z,223.77
2018-11-12T05:32:32.396Z,193.40
2018-11-12T05:35:03.399Z,203.03
2018-11-12T05:37:34.835Z,208.50
2018-11-12T05:40:07.393Z,191.30
2018-11-12T05:42:38.474Z,195.67
2018-11-12T05:45:09.578Z,185.47
2018-11-12T05:47:40.689Z,196.60
2018-11-12T05:50:20.518Z,146.67
2018-11-12T05:52:52.794Z,173.63
2018-11-12T05:55:25.821Z,182.13
2018-11-12T05:57:57.211Z,265.47
2018-11-12T06:00:29.833Z,159.57
2018-11-12T06:03:01.019Z,180.33
2018-11-12T06:05:32.850Z,193.83
2018-11-12T06:08:04.115Z,241.57
2018-11-12T06:10:35.836Z,218.87
2018-11-12T06:13:07.010Z,265.70
2018-11-12T06:15:37.994Z,184.63
2018-11-12T06:18:08.988Z,322.73
2018-11-12T06:20:39.905Z,178.10
2018-11-12T06:23:11.053Z,206.37
2018-11-12T06:25:42.492Z,197.80
2018-11-12T06:28:13.465Z,226.87
2018-11-12T06:30:44.580Z,235.30
2018-11-12T06:33:16.135Z,166.83
2018-11-12T06:35:47.117Z,175.80
2018-11-12T06:38:18.157Z,155.07
2018-11-12T06:40:49.118Z,169.37
2018-11-12T06:43:20.295Z,135.73
2018-11-12T06:45:51.337Z,128.17
2018-11-12T06:48:22.721Z,142.60
2018-11-12T06:50:53.746Z,88.53
2018-11-12T06:53:24.767Z,150.70
2018-11-12T06:55:55.623Z,125.17
2018-11-12T06:58:26.682Z,137.83
2018-11-12T07:00:57.847Z,126.70
2018-11-12T07:03:28.873Z,123.07
2018-11-12T07:05:59.873Z,107.77
2018-11-12T07:08:31.220Z,192.07
2018-11-12T07:11:02.173Z,131.17
2018-11-12T07:13:33.263Z,83.43
2018-11-12T07:16:04.283Z,139.53
2018-11-12T07:18:35.652Z,71.67
2018-11-12T07:21:06.747Z,137.87
2018-11-12T07:23:37.697Z,94.17
2018-11-12T07:26:08.835Z,112.53
2018-11-12T07:28:39.793Z,95.83
2018-11-12T07:31:10.897Z,136.73
2018-11-12T07:33:41.837Z,147.33
2018-11-12T07:36:12.750Z,122.10
2018-11-12T07:38:43.750Z,100.63
2018-11-12T07:41:14.855Z,84.97
2018-11-12T07:43:45.792Z,128.90
2018-11-12T07:46:17.189Z,125.23
2018-11-12T07:48:48.107Z,103.77
2018-11-12T07:51:19.226Z,94.90
2018-11-12T07:53:50.220Z,99.57
2018-11-12T07:56:21.462Z,168.63
2018-11-12T07:58:52.437Z,90.73
2018-11-12T08:01:23.389Z,123.07
2018-11-12T08:03:54.428Z,163.03
2018-11-12T08:06:25.476Z,110.27
2018-11-12T08:08:56.896Z,137.87
2018-11-12T08:11:28.036Z,117.13
2018-11-12T08:13:59.063Z,141.70
2018-11-12T08:16:30.131Z,129.30
2018-11-12T08:19:01.207Z,161.77
2018-11-12T08:21:32.462Z,142.57
2018-11-12T08:24:03.454Z,113.20
2018-11-12T08:26:34.458Z,84.37
2018-11-12T08:29:05.827Z,104.43
2018-11-12T08:31:36.836Z,109.63
2018-11-12T08:34:07.810Z,109.77
2018-11-12T08:36:39.254Z,87.20
2018-11-12T08:39:10.600Z,93.00
2018-11-12T08:41:41.685Z,87.00
2018-11-12T08:44:12.745Z,95.83
2018-11-12T08:46:43.780Z,118.70
2018-11-12T08:49:15.002Z,102.77
2018-11-12T08:51:45.708Z,78.87
2018-11-12T08:54:16.644Z,71.37
2018-11-12T08:56:47.478Z,81.17
2018-11-12T08:59:18.712Z,84.93
2018-11-12T09:01:49.553Z,79.40
2018-11-12T09:04:20.421Z,67.17
2018-11-12T09:06:51.310Z,93.67
2018-11-12T09:09:23.010Z,88.50
2018-11-12T09:11:53.952Z,77.60
2018-11-12T09:14:24.825Z,78.60
2018-11-12T09:16:55.797Z,77.80
2018-11-12T09:19:26.734Z,78.43
2018-11-12T09:21:57.691Z,65.43
2018-11-12T09:24:28.627Z,63.83
2018-11-12T09:26:59.834Z,59.47
2018-11-12T09:29:31.010Z,63.50
2018-11-12T09:32:01.832Z,56.97
2018-11-12T09:34:32.773Z,60.57
2018-11-12T09:37:03.690Z,61.03
2018-11-12T09:39:34.562Z,52.73
2018-11-12T09:42:05.720Z,48.17
2018-11-12T09:44:36.733Z,43.50
2018-11-12T09:47:07.618Z,41.20
2018-11-12T09:49:38.503Z,43.73
2018-11-12T09:52:09.565Z,45.90
2018-11-12T09:54:40.450Z,50.80
2018-11-12T09:57:11.637Z,57.13
2018-11-12T09:59:42.516Z,51.40
2018-11-12T10:02:14.255Z,45.37
2018-11-12T10:04:45.564Z,45.93
2018-11-12T10:07:16.945Z,48.50
2018-11-12T10:09:48.700Z,42.43
2018-11-12T10:12:19.481Z,53.80
2018-11-12T10:14:51.040Z,44.37
2018-11-12T10:17:22.915Z,46.67
2018-11-12T10:19:51.364Z,45.93
2018-11-12T10:22:22.275Z,51.13
2018-11-12T10:24:53.148Z,46.10
2018-11-12T10:27:24.035Z,47.17
2018-11-12T10:29:54.923Z,47.87
2018-11-12T10:32:25.897Z,46.63
2018-11-12T10:34:56.777Z,45.73
2018-11-12T10:37:27.657Z,43.77
2018-11-12T10:39:58.536Z,42.53
2018-11-12T10:42:29.428Z,49.03
2018-11-12T10:45:00.299Z,47.23
2018-11-12T10:47:31.225Z,55.90
2018-11-12T10:50:02.396Z,54.73
2018-11-12T10:52:33.780Z,49.07
2018-11-12T10:55:05.534Z,53.10
2018-11-12T10:57:35.647Z,52.43
2018-11-12T11:00:13.279Z,45.67
2018-11-12T11:03:01.772Z,41.57
2018-11-12T11:05:33.181Z,50.43
2018-11-12T11:08:04.122Z,57.47
2018-11-12T11:10:35.002Z,53.93
2018-11-12T11:13:06.518Z,52.80
2018-11-12T11:15:38.138Z,58.77
2018-11-12T11:18:09.236Z,53.47
2018-11-12T11:20:40.091Z,51.73
2018-11-12T11:23:11.012Z,50.87
2018-11-12T11:25:42.220Z,51.33
2018-11-12T11:28:13.076Z,52.37
2018-11-12T11:30:43.983Z,47.00
2018-11-12T11:33:15.242Z,48.23
2018-11-12T11:35:46.503Z,50.27
2018-11-12T11:38:17.399Z,48.73
2018-11-12T11:40:48.379Z,47.10
2018-11-12T11:43:19.260Z,50.70
2018-11-12T11:45:50.170Z,52.17
2018-11-12T11:48:21.062Z,46.27
2018-11-12T11:50:52.005Z,49.93
2018-11-12T11:53:22.969Z,42.80
2018-11-12T11:55:53.861Z,41.53
2018-11-12T11:58:24.746Z,45.43
2018-11-12T12:00:55.730Z,44.87
2018-11-12T12:03:27.191Z,45.80
2018-11-12T12:05:58.448Z,42.90
2018-11-12T12:08:29.353Z,45.00
2018-11-12T12:11:00.221Z,40.83
2018-11-12T12:13:31.165Z,42.50
2018-11-12T12:16:02.332Z,43.37
2018-11-12T12:18:33.236Z,39.73
2018-11-12T12:21:04.091Z,37.07
2018-11-12T12:23:35.022Z,34.40
2018-11-12T12:26:05.897Z,35.07
2018-11-12T12:28:36.813Z,37.13
2018-11-12T12:31:07.708Z,34.67
2018-11-12T12:33:38.976Z,34.93
2018-11-12T12:36:09.958Z,32.27
2018-11-12T12:38:40.783Z,32.80
2018-11-12T12:41:11.668Z,30.90
2018-11-12T12:43:42.565Z,32.17
2018-11-12T12:46:13.494Z,32.43
2018-11-12T12:48:44.635Z,32.73
2018-11-12T12:51:16.183Z,31.20
2018-11-12T12:53:47.053Z,33.00
2018-11-12T12:56:18.319Z,36.87
2018-11-12T12:58:49.542Z,34.90
2018-11-12T13:01:20.453Z,33.93
2018-11-12T13:03:51.502Z,34.30
2018-11-12T13:06:22.822Z,34.13
2018-11-12T13:08:53.720Z,33.63
2018-11-12T13:11:24.613Z,33.63
2018-11-12T13:13:55.632Z,33.97
2018-11-12T13:16:26.417Z,31.20
2018-11-12T13:18:57.333Z,34.17
2018-11-12T13:21:28.535Z,32.13
2018-11-12T13:23:59.418Z,31.83
2018-11-12T13:26:30.381Z,31.47
2018-11-12T13:29:01.344Z,28.97
2018-11-12T13:31:32.281Z,28.53
2018-11-12T13:34:03.594Z,28.97
2018-11-12T13:36:34.484Z,27.43
2018-11-12T13:39:08.490Z,30.97
2018-11-12T13:41:39.654Z,29.53
2018-11-12T13:44:10.624Z,28.00
2018-11-12T13:46:55.163Z,26.93
2018-11-12T13:49:26.184Z,25.23
2018-11-12T13:51:57.117Z,29.13
2018-11-12T13:54:28.017Z,26.97
2018-11-12T13:56:58.920Z,25.27
2018-11-12T13:59:30.141Z,25.83
2018-11-12T14:02:01.039Z,26.07
2018-11-12T14:04:32.537Z,27.03
2018-11-12T14:07:03.790Z,26.63
2018-11-12T14:09:35.210Z,24.37
2018-11-12T14:12:06.417Z,28.27
2018-11-12T14:14:37.376Z,25.00
2018-11-12T14:17:08.296Z,23.87
2018-11-12T14:19:39.162Z,23.67
2018-11-12T14:22:10.044Z,26.33
2018-11-12T14:24:40.921Z,28.57
2018-11-12T14:27:11.820Z,28.00
2018-11-12T14:29:42.683Z,25.90
2018-11-12T14:32:13.588Z,29.27
2018-11-12T14:34:44.475Z,30.73
2018-11-12T14:37:15.367Z,29.83
2018-11-12T14:39:46.322Z,29.43
2018-11-12T14:42:18.018Z,28.60
2018-11-12T14:44:48.937Z,26.70
2018-11-12T14:47:20.187Z,27.67
2018-11-12T14:49:51.070Z,25.80
2018-11-12T14:52:22.033Z,23.80
2018-11-12T14:54:52.937Z,27.77
2018-11-12T14:57:23.818Z,26.07
2018-11-12T14:59:54.685Z,23.53
2018-11-12T15:02:25.788Z,25.90
2018-11-12T15:04:56.887Z,25.57
2018-11-12T15:07:27.779Z,26.97
2018-11-12T15:09:58.973Z,25.70
2018-11-12T15:12:29.851Z,27.60
2018-11-12T15:15:00.760Z,26.07
2018-11-12T15:17:32.064Z,26.23
2018-11-12T15:20:02.942Z,25.83
2018-11-12T15:22:33.842Z,28.33
2018-11-12T15:25:04.711Z,31.90
2018-11-12T15:27:35.601Z,33.40
2018-11-12T15:30:08.955Z,36.77
2018-11-12T15:32:40.222Z,36.67
2018-11-12T15:35:12.231Z,42.27
2018-11-12T15:37:43.881Z,37.83
2018-11-12T15:40:15.141Z,32.67
2018-11-12T15:42:46.027Z,37.33
2018-11-12T15:45:19.550Z,34.67
2018-11-12T15:47:50.725Z,35.17
2018-11-12T15:50:36.308Z,33.43
2018-11-12T15:53:07.170Z,40.00
2018-11-12T15:55:38.041Z,37.30
2018-11-12T15:58:09.031Z,33.80
2018-11-12T16:00:39.829Z,51.27
2018-11-12T16:03:10.689Z,61.47
2018-11-12T16:05:41.585Z,61.60
2018-11-12T16:08:12.443Z,55.33
2018-11-12T16:10:43.322Z,54.43
2018-11-12T16:13:14.202Z,51.67
2018-11-12T16:15:45.130Z,40.57
2018-11-12T16:18:16.041Z,48.27
2018-11-12T16:20:46.917Z,48.07
2018-11-12T16:23:18.335Z,47.07
2018-11-12T16:25:49.277Z,44.63
2018-11-12T16:28:20.655Z,50.47
2018-11-12T16:30:51.566Z,51.83
2018-11-12T16:33:22.751Z,53.10
2018-11-12T16:35:53.629Z,56.27
2018-11-12T16:38:24.829Z,57.93
2018-11-12T16:40:55.685Z,69.57
2018-11-12T16:43:26.885Z,74.20
2018-11-12T16:45:57.836Z,77.63
2018-11-12T16:48:28.952Z,73.83
2018-11-12T16:50:59.813Z,85.27
2018-11-12T16:53:30.695Z,76.30
2018-11-12T16:56:01.974Z,87.60
2018-11-12T16:58:32.875Z,90.47
2018-11-12T17:01:03.729Z,67.97
2018-11-12T17:03:34.944Z,74.43
2018-11-12T17:06:05.804Z,86.07
2018-11-12T17:08:36.651Z,81.93
2018-11-12T17:11:07.611Z,87.33
2018-11-12T17:13:38.388Z,84.77
2018-11-12T17:16:09.231Z,87.67
2018-11-12T17:18:40.508Z,100.03
2018-11-12T17:21:11.359Z,98.27
2018-11-12T17:23:42.801Z,111.43
2018-11-12T17:26:13.644Z,96.33
2018-11-12T17:28:44.492Z,127.50
2018-11-12T17:31:15.338Z,206.40
2018-11-12T17:33:46.182Z,155.07
2018-11-12T17:36:17.028Z,207.17
2018-11-12T17:38:47.845Z,148.53
2018-11-12T17:41:18.798Z,169.23
2018-11-12T17:43:49.634Z,215.07
2018-11-12T17:46:21.248Z,180.53
2018-11-12T17:48:52.386Z,442.17
2018-11-12T17:51:23.486Z,324.17
2018-11-12T17:53:54.351Z,311.90
2018-11-12T17:56:25.214Z,251.77
2018-11-12T17:58:56.107Z,198.00
2018-11-12T18:01:27.328Z,280.67
2018-11-12T18:03:58.408Z,380.10
2018-11-12T18:06:29.887Z,269.07
2018-11-12T18:09:00.728Z,226.43
2018-11-12T18:11:31.865Z,204.10
2018-11-12T18:14:02.771Z,442.20
2018-11-12T18:16:34.407Z,122.40
2018-11-12T18:19:05.293Z,374.47
2018-11-12T18:21:36.183Z,378.60
2018-11-12T18:24:07.664Z,268.23
2018-11-12T18:26:38.518Z,370.60
2018-11-12T18:29:09.352Z,250.60
2018-11-12T18:31:40.419Z,381.30
2018-11-12T18:34:11.769Z,259.13
2018-11-12T18:36:42.658Z,411.53
2018-11-12T18:39:14.668Z,410.60
2018-11-12T18:41:45.876Z,437.03
2018-11-12T18:44:16.720Z,353.27
2018-11-12T18:46:47.652Z,327.83
2018-11-12T18:49:18.539Z,179.33
2018-11-12T18:51:49.697Z,236.00
2018-11-12T18:54:20.859Z,248.07
2018-11-12T18:56:51.762Z,395.10
2018-11-12T18:59:22.602Z,199.37
2018-11-12T19:01:53.435Z,165.20
2018-11-12T19:04:24.261Z,337.60
2018-11-12T19:06:55.091Z,122.63
2018-11-12T19:09:26.238Z,164.87
2018-11-12T19:11:57.480Z,151.97
2018-11-12T19:14:28.676Z,209.87
2018-11-12T19:17:00.250Z,92.57
2018-11-12T19:19:31.237Z,415.03
2018-11-12T19:22:02.469Z,177.70
2018-11-12T19:24:33.368Z,357.50
2018-11-12T19:27:04.783Z,124.07
2018-11-12T19:29:35.603Z,185.80
2018-11-12T19:32:06.846Z,128.07
2018-11-12T19:34:38.100Z,262.73
2018-11-12T19:37:09.273Z,252.43
2018-11-12T19:39:40.146Z,90.20
2018-11-12T19:42:11.343Z,144.90
2018-11-12T19:44:42.474Z,192.73
2018-11-12T19:47:13.399Z,148.40
2018-11-12T19:49:44.883Z,106.17
2018-11-12T19:52:15.757Z,165.83
2018-11-12T19:54:47.335Z,149.30
2018-11-12T19:57:18.475Z,77.00
2018-11-12T19:59:49.317Z,112.53
2018-11-12T20:02:20.237Z,299.13
2018-11-12T20:04:51.773Z,234.47
2018-11-12T20:07:22.655Z,188.17
2018-11-12T20:09:53.523Z,175.77
2018-11-12T20:12:24.357Z,384.77
2018-11-12T20:14:55.330Z,174.13
2018-11-12T20:17:26.534Z,208.27
2018-11-12T20:19:58.188Z,188.93
2018-11-12T20:22:29.323Z,85.60
2018-11-12T20:25:00.497Z,76.10
2018-11-12T20:27:31.272Z,110.27
2018-11-12T20:30:02.169Z,122.60
2018-11-12T20:32:33.050Z,308.77
2018-11-12T20:35:03.918Z,102.50
2018-11-12T20:37:34.752Z,146.53
2018-11-12T20:40:06.083Z,112.30
2018-11-12T20:42:37.018Z,219.20
2018-11-12T20:45:10.091Z,275.20
2018-11-12T20:47:41.503Z,88.00
2018-11-12T20:50:13.676Z,211.97
2018-11-12T20:52:44.936Z,281.53
2018-11-12T20:55:17.086Z,157.10
2018-11-12T20:57:48.903Z,152.53
2018-11-12T21:00:27.721Z,265.27
2018-11-12T21:02:58.624Z,165.83
2018-11-12T21:05:31.016Z,174.60
2018-11-12T21:08:02.535Z,339.63
2018-11-12T21:10:33.663Z,223.73
2018-11-12T21:13:04.836Z,139.40
2018-11-12T21:15:35.661Z,264.07
2018-11-12T21:18:06.733Z,177.47
2018-11-12T21:20:37.628Z,202.80
2018-11-12T21:23:08.916Z,283.77
2018-11-12T21:25:39.759Z,197.60
2018-11-12T21:28:10.605Z,263.10
2018-11-12T21:30:41.439Z,296.57
2018-11-12T21:33:12.755Z,207.40
2018-11-12T21:35:43.592Z,239.83
2018-11-12T21:38:15.096Z,321.73
2018-11-12T21:40:45.926Z,244.47
2018-11-12T21:43:16.902Z,277.87
2018-11-12T21:45:47.646Z,197.90
2018-11-12T21:48:18.497Z,229.53
2018-11-12T21:50:49.354Z,386.53
2018-11-12T21:53:20.208Z,151.10
2018-11-12T21:55:51.051Z,335.83
2018-11-12T21:58:21.949Z,345.40
2018-11-12T22:00:53.445Z,187.17
2018-11-12T22:05:47.478Z,357.43
2018-11-12T22:08:18.677Z,190.07
2018-11-12T22:10:49.886Z,336.73
2018-11-12T22:13:20.750Z,200.53
2018-11-12T22:15:51.647Z,234.27
2018-11-12T22:18:22.556Z,279.03
2018-11-12T22:20:53.412Z,297.07
2018-11-12T22:23:24.306Z,280.87
2018-11-12T22:25:55.218Z,270.90
2018-11-12T22:28:26.728Z,182.63
2018-11-12T22:30:57.584Z,272.70
2018-11-12T22:33:28.835Z,345.13
2018-11-12T22:35:59.747Z,194.90
2018-11-12T22:38:30.597Z,298.23
2018-11-12T22:41:01.468Z,149.17
2018-11-12T22:43:32.644Z,370.23
2018-11-12T22:46:03.786Z,214.90
2018-11-12T22:48:34.724Z,239.27
2018-11-12T22:51:05.665Z,322.67
2018-11-12T22:53:36.572Z,270.80
2018-11-12T22:56:07.909Z,168.50
2018-11-12T22:58:38.815Z,299.43
2018-11-12T23:01:09.689Z,253.33
2018-11-12T23:03:40.562Z,272.10
2018-11-12T23:06:12.055Z,296.33
2018-11-12T23:08:43.463Z,453.40
2018-11-12T23:11:14.411Z,287.47
2018-11-12T23:13:45.382Z,175.30
2018-11-12T23:16:16.343Z,354.13
2018-11-12T23:18:47.276Z,252.73
2018-11-12T23:21:18.174Z,246.17
2018-11-12T23:23:49.389Z,344.47
2018-11-12T23:26:20.256Z,163.77
2018-11-12T23:28:51.394Z,296.03
2018-11-12T23:31:22.621Z,209.13
2018-11-12T23:33:53.589Z,230.13
2018-11-12T23:36:24.997Z,125.20
2018-11-12T23:38:56.241Z,203.17
2018-11-12T23:41:27.131Z,243.47
2018-11-12T23:43:58.295Z,256.93
2018-11-12T23:46:29.556Z,228.67
2018-11-12T23:49:01.128Z,265.77
2018-11-12T23:51:32.132Z,247.97
2018-11-12T23:54:03.039Z,247.30
2018-11-12T23:56:33.925Z,198.63
2018-11-12T23:59:05.122Z,213.57
